createdAt,value
2022-10-13T00:00:12.023Z,5.28
2022-10-13T00:02:39.098Z,5.32
2022-10-13T00:05:05.982Z,5.50
2022-10-13T00:07:32.548Z,6.20
2022-10-13T00:09:59.196Z,5.85
2022-10-13T00:12:25.787Z,5.45
2022-10-13T00:14:52.348Z,5.40
2022-10-13T00:17:18.907Z,5.90
2022-10-13T00:19:45.433Z,5.45
2022-10-13T00:22:12.069Z,5.80
2022-10-13T00:24:38.656Z,5.60
2022-10-13T00:27:07.709Z,5.47
2022-10-13T00:29:34.259Z,5.70
2022-10-13T00:32:00.798Z,5.47
2022-10-13T00:34:27.342Z,5.68
2022-10-13T00:36:54.370Z,5.80
2022-10-13T00:39:20.913Z,5.63
2022-10-13T00:41:47.454Z,5.47
2022-10-13T00:44:51.465Z,6.10
2022-10-13T00:47:18.162Z,5.45
2022-10-13T00:49:44.919Z,5.20
2022-10-13T00:52:11.805Z,5.80
2022-10-13T00:54:38.340Z,6.27
2022-10-13T00:57:08.575Z,6.03
2022-10-13T00:59:37.131Z,5.95
2022-10-13T01:02:04.396Z,5.75
2022-10-13T01:04:37.260Z,5.82
2022-10-13T01:07:05.286Z,5.97
2022-10-13T01:09:37.701Z,5.60
2022-10-13T01:12:27.455Z,5.88
2022-10-13T01:15:11.882Z,5.88
2022-10-13T01:17:41.414Z,5.63
2022-10-13T01:20:26.114Z,5.73
2022-10-13T01:23:12.406Z,5.72
2022-10-13T01:25:46.809Z,5.55
2022-10-13T01:28:29.747Z,5.72
2022-10-13T01:31:05.631Z,5.25
2022-10-13T01:33:43.804Z,5.30
2022-10-13T01:36:27.710Z,5.78
2022-10-13T01:39:07.456Z,5.90
2022-10-13T01:41:38.593Z,6.28
2022-10-13T01:44:21.066Z,6.00
2022-10-13T01:46:50.104Z,6.17
2022-10-13T01:49:18.959Z,6.40
2022-10-13T01:51:47.606Z,6.28
2022-10-13T01:54:14.640Z,5.90
2022-10-13T01:56:41.134Z,5.88
2022-10-13T01:59:14.041Z,6.00
2022-10-13T02:02:12.563Z,5.85
2022-10-13T02:05:07.932Z,6.07
2022-10-13T02:08:00.466Z,6.15
2022-10-13T02:10:45.445Z,6.25
2022-10-13T02:13:15.286Z,6.03
2022-10-13T02:15:46.212Z,6.35
2022-10-13T02:18:17.190Z,6.85
2022-10-13T02:20:45.905Z,6.60
2022-10-13T02:23:14.793Z,6.72
2022-10-13T02:25:42.394Z,6.67
2022-10-13T02:28:09.545Z,7.45
2022-10-13T02:30:39.320Z,7.13
2022-10-13T02:33:06.696Z,6.90
2022-10-13T02:35:33.724Z,6.45
2022-10-13T02:38:00.772Z,6.47
2022-10-13T02:40:27.653Z,7.05
2022-10-13T02:42:54.179Z,6.82
2022-10-13T02:45:20.870Z,7.20
2022-10-13T02:47:47.405Z,7.10
2022-10-13T02:50:14.178Z,6.70
2022-10-13T02:52:40.866Z,6.55
2022-10-13T02:55:08.429Z,6.93
2022-10-13T02:57:34.931Z,6.70
2022-10-13T03:00:01.766Z,6.55
2022-10-13T03:02:28.907Z,6.53
2022-10-13T03:04:56.062Z,6.95
2022-10-13T03:07:22.568Z,7.10
2022-10-13T03:09:49.017Z,6.90
2022-10-13T03:12:15.602Z,6.63
2022-10-13T03:14:42.039Z,6.57
2022-10-13T03:17:12.546Z,7.22
2022-10-13T03:19:40.042Z,7.57
2022-10-13T03:22:06.642Z,7.53
2022-10-13T03:24:33.122Z,7.55
2022-10-13T03:26:59.611Z,7.20
2022-10-13T03:29:26.246Z,6.65
2022-10-13T03:31:52.775Z,7.60
2022-10-13T03:34:20.224Z,7.13
2022-10-13T03:36:46.814Z,8.25
2022-10-13T03:39:13.742Z,7.00
2022-10-13T03:41:40.403Z,6.97
2022-10-13T03:44:07.589Z,7.65
2022-10-13T03:46:34.173Z,7.35
2022-10-13T03:49:00.772Z,7.68
2022-10-13T03:51:27.255Z,7.83
2022-10-13T03:53:54.001Z,7.70
2022-10-13T03:56:26.536Z,8.05
2022-10-13T03:58:56.521Z,7.35
2022-10-13T04:01:25.072Z,7.93
2022-10-13T04:03:56.015Z,8.30
2022-10-13T04:06:23.697Z,8.32
2022-10-13T04:08:50.404Z,7.80
2022-10-13T04:11:19.889Z,7.70
2022-10-13T04:13:46.466Z,7.90
2022-10-13T04:16:21.920Z,6.87
2022-10-13T04:18:56.788Z,7.90
2022-10-13T04:21:23.945Z,7.38
2022-10-13T04:23:50.778Z,7.45
2022-10-13T04:26:20.638Z,6.85
2022-10-13T04:28:49.366Z,7.00
2022-10-13T04:31:16.447Z,6.85
2022-10-13T04:33:44.194Z,6.97
2022-10-13T04:36:12.955Z,7.63
2022-10-13T04:38:39.797Z,7.20
2022-10-13T04:41:08.075Z,7.47
2022-10-13T04:43:35.382Z,6.97
2022-10-13T04:46:07.423Z,7.10
2022-10-13T04:48:34.262Z,7.65
2022-10-13T04:51:18.199Z,7.47
2022-10-13T04:53:44.853Z,7.93
2022-10-13T04:56:14.472Z,7.47
2022-10-13T04:58:42.571Z,8.05
2022-10-13T05:01:16.505Z,7.32
2022-10-13T05:03:47.350Z,7.55
2022-10-13T05:06:19.717Z,7.70
2022-10-13T05:08:46.241Z,7.53
2022-10-13T05:11:12.899Z,7.68
2022-10-13T05:13:39.370Z,7.50
2022-10-13T05:16:10.466Z,7.60
2022-10-13T05:18:37.534Z,7.80
2022-10-13T05:21:12.517Z,7.60
2022-10-13T05:23:40.046Z,8.60
2022-10-13T05:26:09.581Z,7.22
2022-10-13T05:28:36.375Z,7.40
2022-10-13T05:31:30.290Z,7.80
2022-10-13T05:33:56.828Z,7.40
2022-10-13T05:36:30.742Z,7.68
2022-10-13T05:38:59.860Z,7.53
2022-10-13T05:41:27.839Z,7.72
2022-10-13T05:44:00.395Z,7.90
2022-10-13T05:46:27.951Z,7.50
2022-10-13T05:48:54.588Z,7.88
2022-10-13T05:51:37.998Z,7.93
2022-10-13T05:54:24.320Z,8.00
2022-10-13T05:57:14.177Z,8.23
2022-10-13T05:59:45.360Z,7.80
2022-10-13T06:02:14.877Z,7.65
2022-10-13T06:04:46.127Z,7.20
2022-10-13T06:07:13.091Z,7.95
2022-10-13T06:09:41.213Z,7.40
2022-10-13T06:12:08.584Z,7.30
2022-10-13T06:14:35.374Z,7.38
2022-10-13T06:17:02.066Z,7.55
2022-10-13T06:19:28.634Z,6.88
2022-10-13T06:21:55.101Z,7.60
2022-10-13T06:24:21.672Z,7.55
2022-10-13T06:26:48.244Z,7.93
2022-10-13T06:29:14.880Z,8.52
2022-10-13T06:31:41.414Z,7.78
2022-10-13T06:34:07.938Z,8.33
2022-10-13T06:36:34.583Z,7.68
2022-10-13T06:39:01.048Z,8.05
2022-10-13T06:41:27.584Z,8.15
2022-10-13T06:43:54.278Z,8.48
2022-10-13T06:46:20.881Z,7.77
2022-10-13T06:48:51.001Z,7.53
2022-10-13T06:51:17.905Z,8.23
2022-10-13T06:53:44.527Z,8.10
2022-10-13T06:56:11.277Z,8.43
2022-10-13T06:58:38.679Z,9.10
2022-10-13T07:01:05.954Z,9.93
2022-10-13T07:03:33.297Z,9.23
2022-10-13T07:06:01.737Z,9.20
2022-10-13T07:08:28.342Z,9.00
2022-10-13T07:10:54.924Z,9.47
2022-10-13T07:15:53.022Z,8.35
2022-10-13T07:18:19.505Z,8.40
2022-10-13T07:20:46.192Z,8.95
2022-10-13T07:23:12.792Z,8.37
2022-10-13T07:25:39.559Z,8.23
2022-10-13T07:28:06.027Z,8.05
2022-10-13T07:30:32.545Z,8.60
2022-10-13T07:33:00.036Z,9.68
2022-10-13T07:35:30.409Z,9.20
2022-10-13T07:37:57.195Z,9.40
2022-10-13T07:40:23.923Z,8.73
2022-10-13T07:42:50.452Z,8.85
2022-10-13T07:45:17.270Z,8.20
2022-10-13T07:47:43.821Z,8.73
2022-10-13T07:50:10.603Z,8.55
2022-10-13T07:52:37.259Z,8.82
2022-10-13T07:55:04.305Z,8.93
2022-10-13T07:57:30.814Z,8.38
2022-10-13T07:59:57.430Z,8.53
2022-10-13T08:02:23.957Z,8.95
2022-10-13T08:04:50.437Z,9.00
2022-10-13T08:07:17.730Z,8.95
2022-10-13T08:09:44.700Z,8.48
2022-10-13T08:12:11.946Z,9.27
2022-10-13T08:14:38.563Z,8.98
2022-10-13T08:17:05.146Z,12.45
2022-10-13T08:19:31.639Z,8.73
2022-10-13T08:21:59.670Z,9.43
2022-10-13T08:24:27.569Z,9.13
2022-10-13T08:26:54.157Z,9.02
2022-10-13T08:29:22.476Z,8.57
2022-10-13T08:31:51.740Z,8.88
2022-10-13T08:34:18.697Z,8.63
2022-10-13T08:36:45.275Z,8.90
2022-10-13T08:39:12.138Z,9.43
2022-10-13T08:41:43.801Z,8.38
2022-10-13T08:45:15.770Z,9.65
2022-10-13T08:47:27.065Z,10.80
2022-10-13T08:50:00.783Z,11.33
2022-10-13T08:52:42.014Z,10.90
2022-10-13T08:55:20.011Z,10.68
2022-10-13T08:57:46.689Z,9.73
2022-10-13T09:00:13.595Z,9.35
2022-10-13T09:02:43.243Z,9.37
2022-10-13T09:05:18.423Z,9.18
2022-10-13T09:07:46.247Z,10.10
2022-10-13T09:10:14.543Z,9.77
2022-10-13T09:12:41.230Z,9.95
2022-10-13T09:15:11.887Z,10.10
2022-10-13T09:17:40.774Z,9.52
2022-10-13T09:20:20.059Z,9.50
2022-10-13T09:23:00.859Z,9.57
2022-10-13T09:25:27.394Z,9.75
2022-10-13T09:28:00.188Z,9.27
2022-10-13T09:30:47.715Z,9.75
2022-10-13T09:33:21.306Z,9.63
2022-10-13T09:35:58.585Z,9.75
2022-10-13T09:38:26.625Z,9.75
2022-10-13T09:41:05.773Z,9.67
2022-10-13T09:43:36.939Z,9.45
2022-10-13T09:46:30.050Z,9.85
2022-10-13T09:49:16.734Z,10.02
2022-10-13T09:51:44.988Z,9.52
2022-10-13T09:54:40.688Z,10.10
2022-10-13T09:57:31.728Z,10.20
2022-10-13T10:00:07.566Z,9.65
2022-10-13T10:03:15.302Z,10.45
2022-10-13T10:05:55.497Z,9.82
2022-10-13T10:09:03.742Z,9.60
2022-10-13T10:11:39.516Z,9.50
2022-10-13T10:14:19.512Z,9.32
2022-10-13T10:16:52.782Z,9.30
2022-10-13T10:19:29.191Z,9.07
2022-10-13T10:22:04.429Z,9.47
2022-10-13T10:24:54.845Z,8.88
2022-10-13T10:27:43.695Z,9.07
2022-10-13T10:30:19.359Z,8.85
2022-10-13T10:33:11.565Z,9.60
2022-10-13T10:35:50.747Z,10.30
2022-10-13T10:38:42.682Z,9.15
2022-10-13T10:41:25.608Z,8.88
2022-10-13T10:44:02.298Z,8.50
2022-10-13T10:46:34.429Z,8.13
2022-10-13T10:49:04.331Z,7.93
2022-10-13T10:51:36.711Z,8.68
2022-10-13T10:54:26.455Z,9.00
2022-10-13T10:57:06.317Z,8.43
2022-10-13T10:59:50.726Z,9.13
2022-10-13T11:02:29.048Z,7.83
2022-10-13T11:04:57.889Z,8.90
2022-10-13T11:07:25.541Z,8.00
2022-10-13T11:09:51.915Z,7.95
2022-10-13T11:12:21.713Z,7.57
2022-10-13T11:15:21.568Z,7.70
2022-10-13T11:17:48.146Z,7.28
2022-10-13T11:20:34.972Z,8.00
2022-10-13T11:23:01.431Z,8.35
2022-10-13T11:25:43.122Z,7.55
2022-10-13T11:28:41.221Z,7.20
2022-10-13T11:31:14.909Z,7.65
2022-10-13T11:33:41.408Z,7.60
2022-10-13T11:36:35.697Z,7.88
2022-10-13T11:39:22.667Z,8.32
2022-10-13T11:42:01.243Z,8.37
2022-10-13T11:44:39.161Z,8.52
2022-10-13T11:47:20.225Z,8.23
2022-10-13T11:50:14.812Z,8.30
2022-10-13T11:52:53.717Z,8.23
2022-10-13T11:55:30.112Z,8.10
2022-10-13T11:58:22.776Z,8.18
2022-10-13T12:00:54.379Z,8.63
2022-10-13T12:03:23.651Z,8.80
2022-10-13T12:05:50.696Z,7.65
2022-10-13T12:08:19.859Z,7.93
2022-10-13T12:10:46.813Z,8.48
2022-10-13T12:13:22.980Z,7.82
2022-10-13T12:15:59.845Z,7.50
2022-10-13T12:18:33.821Z,7.32
2022-10-13T12:21:03.891Z,7.47
2022-10-13T12:23:35.508Z,7.93
2022-10-13T12:26:02.409Z,7.78
2022-10-13T12:28:50.471Z,6.93
2022-10-13T12:31:28.030Z,7.53
2022-10-13T12:34:00.257Z,6.87
2022-10-13T12:36:30.808Z,6.32
2022-10-13T12:39:04.831Z,5.50
2022-10-13T12:41:37.180Z,4.82
2022-10-13T12:44:06.749Z,4.65
2022-10-13T12:46:42.257Z,4.90
2022-10-13T12:49:16.513Z,5.63
2022-10-13T12:51:48.822Z,6.07
2022-10-13T12:54:27.617Z,6.07
2022-10-13T12:56:57.473Z,6.22
2022-10-13T12:59:25.740Z,6.30
2022-10-13T13:01:55.469Z,6.18
2022-10-13T13:04:21.829Z,6.75
2022-10-13T13:07:21.716Z,6.25
2022-10-13T13:10:09.035Z,6.20
2022-10-13T13:12:36.940Z,5.77
2022-10-13T13:15:20.841Z,5.97
2022-10-13T13:18:02.795Z,5.65
2022-10-13T13:20:34.786Z,4.85
2022-10-13T13:23:01.599Z,5.63
2022-10-13T13:25:28.181Z,4.67
2022-10-13T13:27:55.568Z,5.15
2022-10-13T13:30:23.594Z,5.00
2022-10-13T13:32:50.571Z,4.90
2022-10-13T13:35:17.238Z,4.68
2022-10-13T13:37:50.324Z,5.23
2022-10-13T13:40:25.931Z,4.90
2022-10-13T13:42:52.562Z,4.68
2022-10-13T13:45:22.008Z,4.90
2022-10-13T13:47:48.812Z,4.78
2022-10-13T13:50:34.906Z,4.80
2022-10-13T13:53:01.737Z,4.50
2022-10-13T13:55:29.710Z,4.82
2022-10-13T13:57:57.197Z,5.18
2022-10-13T14:00:24.588Z,4.82
2022-10-13T14:02:51.221Z,4.60
2022-10-13T14:05:17.705Z,4.90
2022-10-13T14:07:44.204Z,4.60
2022-10-13T14:10:10.972Z,4.97
2022-10-13T14:12:37.872Z,5.22
2022-10-13T14:15:05.548Z,4.80
2022-10-13T14:17:31.958Z,4.97
2022-10-13T14:19:58.478Z,5.97
2022-10-13T14:22:25.580Z,4.68
2022-10-13T14:24:52.750Z,4.95
2022-10-13T14:27:19.207Z,5.30
2022-10-13T14:29:45.654Z,6.00
2022-10-13T14:32:12.217Z,5.30
2022-10-13T14:34:38.645Z,4.80
2022-10-13T14:37:05.497Z,5.18
2022-10-13T14:39:32.058Z,5.13
2022-10-13T14:41:58.580Z,5.00
2022-10-13T14:44:25.091Z,4.72
2022-10-13T14:46:51.577Z,4.97
2022-10-13T14:49:18.137Z,4.68
2022-10-13T14:51:44.634Z,4.83
2022-10-13T14:54:11.186Z,4.70
2022-10-13T14:56:37.814Z,5.20
2022-10-13T14:59:06.532Z,9.02
2022-10-13T15:01:33.907Z,6.28
2022-10-13T15:04:01.552Z,5.70
2022-10-13T15:06:28.271Z,5.28
2022-10-13T15:08:55.406Z,5.28
2022-10-13T15:11:22.251Z,7.45
2022-10-13T15:13:48.762Z,7.15
2022-10-13T15:16:23.321Z,7.50
2022-10-13T15:18:50.444Z,5.78
2022-10-13T15:21:17.694Z,5.68
2022-10-13T15:23:44.990Z,5.97
2022-10-13T15:26:13.996Z,6.38
2022-10-13T15:28:43.094Z,7.10
2022-10-13T15:31:10.535Z,7.38
2022-10-13T15:33:37.215Z,6.32
2022-10-13T15:36:04.220Z,5.20
2022-10-13T15:38:30.990Z,5.38
2022-10-13T15:41:01.791Z,5.37
2022-10-13T15:43:28.461Z,5.22
2022-10-13T15:46:07.136Z,5.22
2022-10-13T15:48:34.660Z,5.70
2022-10-13T15:51:01.536Z,5.78
2022-10-13T15:53:29.906Z,5.37
2022-10-13T15:55:56.561Z,5.93
2022-10-13T15:58:23.136Z,5.13
2022-10-13T16:00:49.698Z,5.82
2022-10-13T16:03:18.222Z,5.50
2022-10-13T16:05:46.040Z,5.67
2022-10-13T16:08:13.945Z,5.72
2022-10-13T16:10:41.924Z,5.57
2022-10-13T16:13:12.236Z,5.28
2022-10-13T16:15:38.844Z,5.13
2022-10-13T16:18:05.448Z,6.30
2022-10-13T16:20:34.925Z,6.55
2022-10-13T16:23:01.659Z,7.95
2022-10-13T16:25:29.297Z,8.20
2022-10-13T16:27:56.233Z,8.93
2022-10-13T16:30:22.731Z,8.53
2022-10-13T16:32:49.364Z,8.60
2022-10-13T16:35:16.131Z,10.00
2022-10-13T16:37:42.694Z,9.80
2022-10-13T16:40:09.648Z,10.13
2022-10-13T16:42:36.161Z,10.13
2022-10-13T16:45:02.770Z,10.50
2022-10-13T16:47:29.896Z,10.43
2022-10-13T16:49:56.556Z,10.60
2022-10-13T16:52:23.031Z,10.90
2022-10-13T16:54:49.567Z,10.73
2022-10-13T16:57:16.021Z,10.23
2022-10-13T16:59:42.595Z,10.23
2022-10-13T17:02:14.709Z,9.93
2022-10-13T17:04:41.718Z,10.52
2022-10-13T17:07:08.315Z,11.53
2022-10-13T17:09:34.950Z,11.30
2022-10-13T17:12:02.164Z,11.88
2022-10-13T17:14:28.875Z,12.52
2022-10-13T17:16:57.743Z,13.57
2022-10-13T17:19:25.561Z,13.43
2022-10-13T17:21:51.993Z,13.30
2022-10-13T17:24:18.881Z,14.15
2022-10-13T17:26:45.531Z,13.43
2022-10-13T17:29:11.995Z,13.57
2022-10-13T17:31:38.468Z,14.13
2022-10-13T17:34:06.095Z,14.15
2022-10-13T17:36:34.062Z,14.90
2022-10-13T17:39:06.720Z,13.65
2022-10-13T17:41:33.527Z,14.70
2022-10-13T17:44:00.099Z,14.53
2022-10-13T17:46:38.303Z,15.35
2022-10-13T17:49:10.650Z,15.05
2022-10-13T17:51:37.558Z,14.52
2022-10-13T17:54:04.350Z,15.13
2022-10-13T17:56:31.558Z,14.47
2022-10-13T17:59:00.170Z,16.00
2022-10-13T18:01:30.338Z,15.30
2022-10-13T18:03:59.268Z,15.65
2022-10-13T18:06:35.308Z,14.30
2022-10-13T18:09:10.138Z,13.07
2022-10-13T18:11:37.973Z,13.40
2022-10-13T18:14:05.271Z,13.48
2022-10-13T18:16:32.052Z,12.65
2022-10-13T18:18:58.582Z,16.50
2022-10-13T18:21:28.355Z,17.37
2022-10-13T18:24:00.431Z,18.33
2022-10-13T18:26:32.086Z,17.40
2022-10-13T18:28:58.961Z,20.40
2022-10-13T18:31:28.637Z,17.63
2022-10-13T18:33:57.339Z,19.13
2022-10-13T18:36:28.287Z,20.20
2022-10-13T18:39:00.233Z,19.83
2022-10-13T18:41:26.794Z,19.17
2022-10-13T18:43:54.055Z,18.77
2022-10-13T18:46:20.578Z,18.63
2022-10-13T18:48:47.099Z,19.55
2022-10-13T18:51:16.100Z,18.55
2022-10-13T18:53:44.708Z,17.98
2022-10-13T18:56:20.356Z,17.95
2022-10-13T18:58:47.343Z,18.27
2022-10-13T19:01:18.179Z,17.85
2022-10-13T19:03:45.011Z,17.95
2022-10-13T19:06:13.573Z,18.58
2022-10-13T19:08:40.863Z,17.95
2022-10-13T19:11:20.782Z,17.63
2022-10-13T19:13:50.044Z,17.45
2022-10-13T19:16:22.182Z,18.30
2022-10-13T19:18:49.061Z,17.33
2022-10-13T19:21:17.409Z,16.77
2022-10-13T19:23:44.117Z,18.70
2022-10-13T19:26:15.071Z,16.92
2022-10-13T19:28:42.933Z,17.13
2022-10-13T19:31:15.187Z,17.42
2022-10-13T19:33:45.259Z,17.15
2022-10-13T19:36:21.127Z,19.87
2022-10-13T19:38:47.667Z,22.08
2022-10-13T19:41:14.333Z,19.90
2022-10-13T19:43:40.962Z,17.90
2022-10-13T19:46:08.380Z,17.33
2022-10-13T19:48:34.914Z,17.50
2022-10-13T19:51:02.268Z,17.58
2022-10-13T19:53:28.854Z,18.55
2022-10-13T19:55:55.299Z,17.85
2022-10-13T19:58:21.779Z,18.55
2022-10-13T20:00:49.775Z,18.27
2022-10-13T20:03:16.424Z,18.63
2022-10-13T20:05:43.166Z,18.83
2022-10-13T20:08:11.250Z,18.50
2022-10-13T20:10:42.783Z,17.42
2022-10-13T20:13:10.526Z,18.77
2022-10-13T20:15:43.659Z,18.52
2022-10-13T20:18:13.012Z,20.38
2022-10-13T20:20:40.952Z,19.67
2022-10-13T20:23:08.193Z,20.70
2022-10-13T20:25:38.220Z,21.27
2022-10-13T20:28:06.097Z,20.88
2022-10-13T20:30:33.438Z,20.52
2022-10-13T20:33:00.497Z,19.73
2022-10-13T20:35:27.345Z,25.35
2022-10-13T20:37:53.894Z,25.97
2022-10-13T20:40:20.408Z,22.92
2022-10-13T20:42:51.643Z,21.75
2022-10-13T20:45:19.018Z,21.00
2022-10-13T20:47:46.844Z,19.88
2022-10-13T20:50:13.588Z,20.30
2022-10-13T20:52:40.666Z,20.85
2022-10-13T20:55:07.485Z,21.02
2022-10-13T20:57:34.069Z,20.55
2022-10-13T21:00:00.555Z,20.88
2022-10-13T21:02:27.006Z,20.73
2022-10-13T21:04:53.471Z,21.25
2022-10-13T21:07:20.282Z,21.30
2022-10-13T21:09:51.431Z,20.90
2022-10-13T21:12:20.028Z,21.00
2022-10-13T21:14:46.526Z,21.13
2022-10-13T21:17:13.019Z,20.80
2022-10-13T21:19:39.509Z,20.95
2022-10-13T21:22:05.944Z,20.52
2022-10-13T21:24:33.062Z,20.52
2022-10-13T21:26:59.670Z,19.37
2022-10-13T21:29:26.247Z,21.05
2022-10-13T21:31:52.728Z,20.13
2022-10-13T21:34:19.252Z,18.88
2022-10-13T21:36:46.024Z,18.52
2022-10-13T21:39:12.565Z,19.07
2022-10-13T21:41:39.084Z,18.90
2022-10-13T21:44:05.577Z,19.05
2022-10-13T21:46:34.267Z,19.20
2022-10-13T21:49:03.510Z,18.52
2022-10-13T21:51:36.141Z,18.20
2022-10-13T21:54:06.047Z,19.33
2022-10-13T21:56:33.926Z,19.48
2022-10-13T21:59:00.427Z,18.83
2022-10-13T22:01:27.416Z,18.52
2022-10-13T22:03:56.316Z,19.20
2022-10-13T22:06:23.160Z,19.00
2022-10-13T22:08:52.891Z,19.20
2022-10-13T22:11:20.832Z,17.85
2022-10-13T22:13:47.272Z,18.25
2022-10-13T22:16:19.694Z,17.90
2022-10-13T22:18:46.770Z,19.17
2022-10-13T22:21:16.643Z,18.15
2022-10-13T22:23:43.736Z,18.45
2022-10-13T22:26:11.834Z,19.17
2022-10-13T22:28:39.213Z,18.43
2022-10-13T22:31:07.595Z,18.23
2022-10-13T22:33:35.710Z,18.55
2022-10-13T22:36:18.816Z,18.35
2022-10-13T22:38:46.395Z,17.50
2022-10-13T22:41:14.826Z,18.37
2022-10-13T22:43:44.046Z,18.90
2022-10-13T22:46:12.008Z,19.25
2022-10-13T22:48:40.995Z,18.75
2022-10-13T22:51:10.229Z,19.20
2022-10-13T22:53:37.575Z,19.27
2022-10-13T22:56:09.164Z,18.27
2022-10-13T22:58:36.015Z,19.38
2022-10-13T23:01:14.750Z,18.30
2022-10-13T23:03:42.081Z,17.73
2022-10-13T23:06:13.304Z,17.60
2022-10-13T23:08:39.979Z,17.63
2022-10-13T23:11:06.654Z,18.00
2022-10-13T23:13:33.417Z,17.73
2022-10-13T23:16:17.937Z,16.85
2022-10-13T23:18:44.779Z,17.90
2022-10-13T23:21:14.064Z,19.08
2022-10-13T23:23:40.938Z,17.95
2022-10-13T23:26:10.626Z,17.83
2022-10-13T23:28:37.822Z,17.00
2022-10-13T23:31:06.896Z,17.37
2022-10-13T23:33:33.946Z,18.27
2022-10-13T23:36:01.859Z,17.95
2022-10-13T23:38:30.421Z,17.90
2022-10-13T23:41:06.071Z,17.65
2022-10-13T23:43:32.955Z,17.87
2022-10-13T23:45:59.815Z,17.55
2022-10-13T23:48:26.816Z,18.25
2022-10-13T23:50:53.503Z,17.55
2022-10-13T23:53:20.284Z,17.95
2022-10-13T23:55:46.882Z,17.00
2022-10-13T23:58:14.799Z,17.90
